Terminal Aerodrome Forecast
Issued by NWS

Home | Current Version | Previous Version | Text Only | Print | Product List | Glossary On
Versions: 1 2 3 4 5 6 7 8 9 10 11 12 13 14 15 16 17 18 19 20 21 22 23 24 25 26 27 28 29 30 31 32 33 34 35
156
FTUS43 KDVN 201505 CCA
TAFCID
TAF COR
KCID 201505Z 2015/2112 12006KT 3/4SM BR OVC004
      TEMPO 2015/2017 1/4SM FG VV003
     FM201800 12005KT 2SM BR OVC007
     FM210200 11006KT 1/2SM -DZ FG OVC002=

USA.gov is the U.S. government's official web portal to all federal, state and local government web resources and services.